Nearby METAR Reports

 

KHQM - Hoquiam,WA, USA
Updated: 08/24/2019 5:53am
Overcast
Overcast
 Wind from SW
Wind: SW 6 mph , 9 km/h
Temperature: 61°F , 16°C
Dew Point: 61°F , 16°C
Humidity: 100%
Barometer: 29.96 inHg , 1014.6 hPa
Clouds: Overcast
Visibility: 8 miles , 13 km
Cloud details: Mostly cloudy 4300 ft
Overcast 6000 ft
2019/08/24 12:53 KHQM 241253Z AUTO 22005KT 8SM BKN043 OVC060 16/16 A2996 RMK AO2 SLP148 T01610156